createdAt,value
2019-05-16T00:00:51.560Z,99038.00
2019-05-16T00:03:28.224Z,99038.00
2019-05-16T00:06:00.677Z,99035.00
2019-05-16T00:08:38.919Z,99024.00
2019-05-16T00:11:13.887Z,99034.00
2019-05-16T00:13:48.588Z,99028.00
2019-05-16T00:16:28.683Z,99021.00
2019-05-16T00:19:11.334Z,99017.00
2019-05-16T00:21:52.827Z,99007.00
2019-05-16T00:24:25.100Z,99012.00
2019-05-16T00:30:03.136Z,99008.00
2019-05-16T00:32:40.692Z,99001.00
2019-05-16T00:35:14.532Z,98997.00
2019-05-16T00:37:48.394Z,98990.00
2019-05-16T00:40:24.082Z,98983.00
2019-05-16T00:42:58.885Z,98985.00
2019-05-16T00:45:30.969Z,98981.00
2019-05-16T00:48:08.788Z,98978.00
2019-05-16T00:50:42.763Z,98969.00
2019-05-16T00:53:38.236Z,98967.00
2019-05-16T00:58:08.827Z,98975.00
2019-05-16T01:01:03.908Z,98976.00
2019-05-16T01:03:39.432Z,98970.00
2019-05-16T01:06:22.565Z,98975.00
2019-05-16T01:08:54.696Z,98969.00
2019-05-16T01:11:33.148Z,98965.00
2019-05-16T01:14:15.179Z,98960.00
2019-05-16T01:16:48.766Z,98965.00
2019-05-16T01:19:27.826Z,98967.00
2019-05-16T01:25:12.074Z,98965.00
2019-05-16T01:27:48.184Z,98967.00
2019-05-16T01:30:21.520Z,98973.00
2019-05-16T01:33:02.087Z,98968.00
2019-05-16T01:35:43.873Z,98973.00
2019-05-16T01:38:24.778Z,98969.00
2019-05-16T01:40:58.847Z,98974.00
2019-05-16T01:43:37.609Z,98968.00
2019-05-16T01:46:11.607Z,98978.00
2019-05-16T01:48:43.587Z,98966.00
2019-05-16T01:51:18.209Z,98960.00
2019-05-16T01:53:49.586Z,98964.00
2019-05-16T01:56:21.867Z,98966.00
2019-05-16T01:58:58.127Z,98960.00
2019-05-16T02:01:30.930Z,98955.00
2019-05-16T02:04:03.199Z,98951.00
2019-05-16T02:06:49.398Z,98945.00
2019-05-16T02:09:11.518Z,98951.00
2019-05-16T02:11:48.103Z,98954.00
2019-05-16T02:14:20.569Z,98942.00
2019-05-16T02:16:52.552Z,98953.00
2019-05-16T02:19:24.648Z,98959.00
2019-05-16T02:21:59.471Z,98952.00
2019-05-16T02:24:32.065Z,98957.00
2019-05-16T02:27:04.447Z,98954.00
2019-05-16T02:29:40.058Z,98953.00
2019-05-16T02:32:12.273Z,98955.00
2019-05-16T02:34:44.252Z,98953.00
2019-05-16T02:37:24.237Z,98954.00
2019-05-16T02:39:54.576Z,98954.00
2019-05-16T02:42:27.014Z,98950.00
2019-05-16T02:45:02.206Z,98939.00
2019-05-16T02:47:35.150Z,98944.00
2019-05-16T02:50:11.789Z,98935.00
2019-05-16T02:52:44.769Z,98938.00
2019-05-16T02:55:21.617Z,98940.00
2019-05-16T02:57:55.220Z,98931.00
2019-05-16T03:00:42.531Z,98932.00
2019-05-16T03:03:21.559Z,98937.00
2019-05-16T03:06:01.346Z,98923.00
2019-05-16T03:08:41.905Z,98924.00
2019-05-16T03:11:14.509Z,98925.00
2019-05-16T03:13:51.327Z,98914.00
2019-05-16T03:16:31.569Z,98904.00
2019-05-16T03:19:11.298Z,98906.00
2019-05-16T03:21:51.055Z,98897.00
2019-05-16T03:24:30.920Z,98900.00
2019-05-16T03:27:05.945Z,98898.00
2019-05-16T03:29:51.985Z,98892.00
2019-05-16T03:32:26.292Z,98895.00
2019-05-16T03:35:04.743Z,98885.00
2019-05-16T03:37:51.390Z,98881.00
2019-05-16T03:40:21.282Z,98879.00
2019-05-16T03:46:11.497Z,98881.00
2019-05-16T03:51:31.140Z,98860.00
2019-05-16T03:54:03.412Z,98856.00
2019-05-16T03:56:40.860Z,98858.00
2019-05-16T03:59:16.714Z,98852.00
2019-05-16T04:01:53.629Z,98856.00
2019-05-16T04:04:30.804Z,98847.00
2019-05-16T04:13:21.006Z,98851.00
2019-05-16T04:16:13.027Z,98849.00
2019-05-16T04:18:51.419Z,98848.00
2019-05-16T04:21:32.409Z,98841.00
2019-05-16T04:24:21.372Z,98836.00
2019-05-16T04:27:01.204Z,98838.00
2019-05-16T04:29:35.470Z,98836.00
2019-05-16T04:32:20.577Z,98829.00
2019-05-16T04:34:53.908Z,98832.00
2019-05-16T04:37:31.160Z,98825.00
2019-05-16T04:40:02.057Z,98824.00
2019-05-16T04:42:36.044Z,98822.00
2019-05-16T04:45:16.500Z,98817.00
2019-05-16T04:47:53.704Z,98826.00
2019-05-16T04:50:31.520Z,98820.00
2019-05-16T04:53:05.302Z,98807.00
2019-05-16T04:55:41.849Z,98817.00
2019-05-16T04:58:13.034Z,98807.00
2019-05-16T05:00:52.781Z,98805.00
2019-05-16T05:05:33.951Z,98808.00
2019-05-16T05:08:10.670Z,98806.00
2019-05-16T05:10:47.325Z,98796.00
2019-05-16T05:13:25.651Z,98801.00
2019-05-16T05:16:01.411Z,98800.00
2019-05-16T05:18:36.536Z,98788.00
2019-05-16T05:21:11.617Z,98781.00
2019-05-16T05:23:44.280Z,98779.00
2019-05-16T05:26:16.645Z,98788.00
2019-05-16T05:28:50.807Z,98787.00
2019-05-16T05:31:25.863Z,98781.00
2019-05-16T05:34:01.432Z,98786.00
2019-05-16T05:36:34.163Z,98781.00
2019-05-16T05:39:14.847Z,98786.00
2019-05-16T05:41:42.802Z,98771.00
2019-05-16T05:44:16.497Z,98779.00
2019-05-16T05:46:50.988Z,98781.00
2019-05-16T05:49:22.966Z,98776.00
2019-05-16T05:51:55.180Z,98776.00
2019-05-16T05:54:27.359Z,98770.00
2019-05-16T05:57:05.250Z,98774.00
2019-05-16T05:59:40.289Z,98767.00
2019-05-16T06:02:16.451Z,98770.00
2019-05-16T06:05:03.618Z,98770.00
2019-05-16T06:07:41.453Z,98774.00
2019-05-16T06:10:16.969Z,98774.00
2019-05-16T06:12:50.285Z,98777.00
2019-05-16T06:15:23.064Z,98767.00
2019-05-16T06:18:00.241Z,98778.00
2019-05-16T06:20:34.693Z,98761.00
2019-05-16T06:23:07.339Z,98759.00
2019-05-16T06:25:40.784Z,98748.00
2019-05-16T06:28:14.863Z,98756.00
2019-05-16T06:30:51.734Z,98748.00
2019-05-16T06:33:30.350Z,98751.00
2019-05-16T06:36:03.705Z,98759.00
2019-05-16T06:38:40.391Z,98748.00
2019-05-16T06:41:11.728Z,98749.00
2019-05-16T06:43:46.152Z,98750.00
2019-05-16T06:46:20.140Z,98738.00
2019-05-16T06:48:54.702Z,98739.00
2019-05-16T06:51:30.576Z,98736.00
2019-05-16T06:54:05.982Z,98749.00
2019-05-16T06:56:40.151Z,98734.00
2019-05-16T06:59:14.248Z,98733.00
2019-05-16T07:01:46.421Z,98730.00
2019-05-16T07:04:20.055Z,98720.00
2019-05-16T07:06:59.268Z,98713.00
2019-05-16T07:09:31.008Z,98718.00
2019-05-16T07:12:04.661Z,98691.00
2019-05-16T07:14:36.644Z,98685.00
2019-05-16T07:17:11.726Z,98682.00
2019-05-16T07:19:45.830Z,98680.00
2019-05-16T07:22:22.287Z,98670.00
2019-05-16T07:24:59.880Z,98676.00
2019-05-16T07:27:33.669Z,98680.00
2019-05-16T07:30:10.595Z,98672.00
2019-05-16T07:32:46.013Z,98679.00
2019-05-16T07:35:20.411Z,98676.00
2019-05-16T07:37:55.401Z,98680.00
2019-05-16T07:40:33.263Z,98655.00
2019-05-16T07:45:46.422Z,98652.00
2019-05-16T07:48:22.493Z,98663.00
2019-05-16T07:50:54.920Z,98656.00
2019-05-16T07:53:35.161Z,98637.00
2019-05-16T07:56:13.327Z,98642.00
2019-05-16T07:58:51.579Z,98660.00
2019-05-16T08:01:30.535Z,98661.00
2019-05-16T08:04:04.599Z,98661.00
2019-05-16T08:06:36.903Z,98658.00
2019-05-16T08:09:12.523Z,98646.00
2019-05-16T08:11:46.621Z,98640.00
2019-05-16T08:14:21.304Z,98633.00
2019-05-16T08:16:55.463Z,98621.00
2019-05-16T08:19:30.924Z,98627.00
2019-05-16T08:22:10.777Z,98624.00
2019-05-16T08:24:52.946Z,98621.00
2019-05-16T08:27:31.314Z,98613.00
2019-05-16T08:30:04.026Z,98598.00
2019-05-16T08:32:42.038Z,98609.00
2019-05-16T08:35:21.033Z,98607.00
2019-05-16T08:38:03.835Z,98616.00
2019-05-16T08:43:22.145Z,98616.00
2019-05-16T08:45:55.434Z,98605.00
2019-05-16T08:48:43.991Z,98604.00
2019-05-16T08:51:22.000Z,98581.00
2019-05-16T08:53:53.013Z,98587.00
2019-05-16T08:56:25.019Z,98604.00
2019-05-16T08:59:02.832Z,98601.00
2019-05-16T09:01:35.532Z,98591.00
2019-05-16T09:04:11.943Z,98577.00
2019-05-16T09:06:52.417Z,98568.00
2019-05-16T09:09:39.101Z,98570.00
2019-05-16T09:10:21.219Z,98614.00
2019-05-16T09:11:59.820Z,98566.00
2019-05-16T09:14:38.576Z,98576.00
2019-05-16T09:17:18.116Z,98565.00
2019-05-16T09:19:52.505Z,98567.00
2019-05-16T09:22:30.338Z,98574.00
2019-05-16T09:25:10.401Z,98581.00
2019-05-16T09:27:47.059Z,98575.00
2019-05-16T09:30:20.761Z,98588.00
2019-05-16T09:32:58.596Z,98584.00
2019-05-16T09:35:30.278Z,98578.00
2019-05-16T09:40:41.726Z,98574.00
2019-05-16T09:43:19.774Z,98565.00
2019-05-16T09:46:03.912Z,98559.00
2019-05-16T09:48:47.724Z,98567.00
2019-05-16T09:51:27.106Z,98576.00
2019-05-16T09:54:01.534Z,98565.00
2019-05-16T09:56:33.192Z,98583.00
2019-05-16T09:59:09.398Z,98573.00
2019-05-16T10:01:48.046Z,98572.00
2019-05-16T10:04:22.829Z,98570.00
2019-05-16T10:06:58.666Z,98565.00
2019-05-16T10:09:44.507Z,98565.00
2019-05-16T10:12:15.239Z,98564.00
2019-05-16T10:14:47.008Z,98562.00
2019-05-16T10:17:27.621Z,98556.00
2019-05-16T10:20:03.982Z,98552.00
2019-05-16T10:22:38.319Z,98547.00
2019-05-16T10:27:47.769Z,98537.00
2019-05-16T10:30:28.671Z,98529.00
2019-05-16T10:33:06.894Z,98545.00
2019-05-16T10:35:40.321Z,98529.00
2019-05-16T10:38:17.189Z,98518.00
2019-05-16T10:40:49.210Z,98514.00
2019-05-16T10:43:28.023Z,98499.00
2019-05-16T10:46:06.308Z,98505.00
2019-05-16T10:48:43.763Z,98511.00
2019-05-16T10:51:29.490Z,98493.00
2019-05-16T10:54:10.530Z,98504.00
2019-05-16T10:56:41.113Z,98511.00
2019-05-16T11:01:56.399Z,98514.00
2019-05-16T11:04:52.626Z,98500.00
2019-05-16T11:07:10.143Z,98484.00
2019-05-16T11:09:57.688Z,98490.00
2019-05-16T11:12:22.281Z,98502.00
2019-05-16T11:15:01.289Z,98502.00
2019-05-16T11:17:37.245Z,98489.00
2019-05-16T11:20:19.666Z,98495.00
2019-05-16T11:22:51.653Z,98490.00
2019-05-16T11:25:31.728Z,98483.00
2019-05-16T11:28:07.306Z,98476.00
2019-05-16T11:30:47.734Z,98465.00
2019-05-16T11:33:28.238Z,98474.00
2019-05-16T11:36:03.022Z,98462.00
2019-05-16T11:38:37.834Z,98453.00
2019-05-16T11:41:18.012Z,98447.00
2019-05-16T11:44:10.740Z,98447.00
2019-05-16T11:46:49.068Z,98438.00
2019-05-16T11:49:27.407Z,98424.00
2019-05-16T11:52:07.381Z,98421.00
2019-05-16T11:54:41.997Z,98428.00
2019-05-16T11:58:57.073Z,98430.00
2019-05-16T12:01:32.123Z,98438.00
2019-05-16T12:04:07.945Z,98440.00
2019-05-16T12:06:52.997Z,98436.00
2019-05-16T12:09:34.041Z,98463.00
2019-05-16T12:12:08.500Z,98454.00
2019-05-16T12:16:18.861Z,98444.00
2019-05-16T12:18:54.319Z,98456.00
2019-05-16T12:21:39.991Z,98447.00
2019-05-16T12:24:37.174Z,98442.00
2019-05-16T12:27:17.218Z,98442.00
2019-05-16T12:29:56.257Z,98444.00
2019-05-16T12:32:31.064Z,98420.00
2019-05-16T12:35:17.381Z,98416.00
2019-05-16T12:37:52.057Z,98434.00
2019-05-16T12:40:48.243Z,98429.00
2019-05-16T12:43:22.530Z,98434.00
2019-05-16T12:48:32.477Z,98427.00
2019-05-16T12:51:08.417Z,98421.00
2019-05-16T12:53:51.550Z,98413.00
2019-05-16T12:56:26.903Z,98417.00
2019-05-16T12:59:00.666Z,98419.00
2019-05-16T13:01:42.078Z,98423.00
2019-05-16T13:04:18.541Z,98414.00
2019-05-16T13:06:52.228Z,98434.00
2019-05-16T13:09:26.529Z,98411.00
2019-05-16T13:12:06.943Z,98411.00
2019-05-16T13:14:40.372Z,98396.00
2019-05-16T13:17:16.601Z,98390.00
2019-05-16T13:19:48.863Z,98393.00
2019-05-16T13:22:27.566Z,98384.00
2019-05-16T13:25:01.438Z,98388.00
2019-05-16T13:27:39.375Z,98379.00
2019-05-16T13:30:21.815Z,98388.00
2019-05-16T13:32:56.584Z,98401.00
2019-05-16T13:35:37.015Z,98401.00
2019-05-16T13:38:13.460Z,98407.00
2019-05-16T13:44:07.302Z,98399.00
2019-05-16T13:46:40.957Z,98401.00
2019-05-16T13:49:26.845Z,98401.00
2019-05-16T13:52:00.711Z,98396.00
2019-05-16T13:54:41.961Z,98418.00
2019-05-16T13:57:28.498Z,98413.00
2019-05-16T14:00:17.065Z,98408.00
2019-05-16T14:02:51.406Z,98404.00
2019-05-16T14:05:26.774Z,98417.00
2019-05-16T14:08:00.159Z,98415.00
2019-05-16T14:10:37.544Z,98415.00
2019-05-16T14:13:16.546Z,98420.00
2019-05-16T14:15:52.582Z,98414.00
2019-05-16T14:18:32.491Z,98414.00
2019-05-16T14:21:13.229Z,98400.00
2019-05-16T14:23:53.180Z,98428.00
2019-05-16T14:26:26.164Z,98415.00
2019-05-16T14:29:03.657Z,98425.00
2019-05-16T14:31:41.143Z,98436.00
2019-05-16T14:34:18.061Z,98427.00
2019-05-16T14:36:57.952Z,98440.00
2019-05-16T14:39:42.374Z,98432.00
2019-05-16T14:42:23.222Z,98424.00
2019-05-16T14:45:10.935Z,98425.00
2019-05-16T14:47:37.980Z,98416.00
2019-05-16T14:50:14.235Z,98413.00
2019-05-16T14:52:52.536Z,98413.00
2019-05-16T14:55:23.737Z,98389.00
2019-05-16T14:57:58.927Z,98407.00
2019-05-16T15:00:38.577Z,98395.00
2019-05-16T15:04:52.743Z,98393.00
2019-05-16T15:07:27.799Z,98382.00
2019-05-16T15:10:08.132Z,98394.00
2019-05-16T15:12:41.764Z,98403.00
2019-05-16T15:15:30.865Z,98384.00
2019-05-16T15:18:08.052Z,98390.00
2019-05-16T15:20:40.488Z,98400.00
2019-05-16T15:23:17.625Z,98380.00
2019-05-16T15:25:51.870Z,98415.00
2019-05-16T15:28:27.697Z,98402.00
2019-05-16T15:31:01.146Z,98404.00
2019-05-16T15:33:36.491Z,98389.00
2019-05-16T15:36:08.905Z,98391.00
2019-05-16T15:38:47.235Z,98401.00
2019-05-16T15:41:24.032Z,98391.00
2019-05-16T15:44:07.844Z,98397.00
2019-05-16T15:46:52.970Z,98388.00
2019-05-16T15:49:27.230Z,98402.00
2019-05-16T15:51:59.040Z,98386.00
2019-05-16T15:54:32.782Z,98391.00
2019-05-16T15:57:08.938Z,98401.00
2019-05-16T15:59:58.310Z,98399.00
2019-05-16T16:02:48.432Z,98410.00
2019-05-16T16:05:29.529Z,98413.00
2019-05-16T16:08:10.373Z,98414.00
2019-05-16T16:10:47.864Z,98411.00
2019-05-16T16:13:26.615Z,98415.00
2019-05-16T16:16:01.422Z,98402.00
2019-05-16T16:18:39.224Z,98403.00
2019-05-16T16:21:20.736Z,98395.00
2019-05-16T16:24:09.162Z,98406.00
2019-05-16T16:26:48.506Z,98388.00
2019-05-16T16:29:29.406Z,98384.00
2019-05-16T16:32:06.572Z,98384.00
2019-05-16T16:34:42.723Z,98380.00
2019-05-16T16:37:21.880Z,98379.00
2019-05-16T16:40:14.114Z,98375.00
2019-05-16T16:43:04.243Z,98372.00
2019-05-16T16:45:48.038Z,98373.00
2019-05-16T16:48:33.181Z,98372.00
2019-05-16T16:52:53.219Z,98371.00
2019-05-16T17:00:41.590Z,98374.00
2019-05-16T17:03:27.260Z,98370.00
2019-05-16T17:06:00.817Z,98373.00
2019-05-16T17:08:37.294Z,98380.00
2019-05-16T17:11:14.080Z,98373.00
2019-05-16T17:13:49.537Z,98373.00
2019-05-16T17:16:28.448Z,98368.00
2019-05-16T17:19:01.032Z,98375.00
2019-05-16T17:21:36.764Z,98369.00
2019-05-16T17:24:16.638Z,98370.00
2019-05-16T17:26:49.908Z,98363.00
2019-05-16T17:29:24.456Z,98362.00
2019-05-16T17:32:10.198Z,98363.00
2019-05-16T17:34:50.559Z,98373.00
2019-05-16T17:37:30.017Z,98359.00
2019-05-16T17:40:02.751Z,98369.00
2019-05-16T17:42:38.421Z,98361.00
2019-05-16T17:45:12.570Z,98360.00
2019-05-16T17:47:46.585Z,98366.00
2019-05-16T17:50:22.716Z,98353.00
2019-05-16T17:52:57.725Z,98348.00
2019-05-16T17:55:30.911Z,98350.00
2019-05-16T17:58:06.377Z,98338.00
2019-05-16T18:00:37.579Z,98340.00
2019-05-16T18:03:10.303Z,98339.00
2019-05-16T18:05:47.254Z,98346.00
2019-05-16T18:08:19.798Z,98350.00
2019-05-16T18:10:59.863Z,98335.00
2019-05-16T18:13:32.122Z,98342.00
2019-05-16T18:16:09.103Z,98342.00
2019-05-16T18:18:49.119Z,98333.00
2019-05-16T18:21:41.027Z,98333.00
2019-05-16T18:24:24.093Z,98332.00
2019-05-16T18:27:01.285Z,98330.00
2019-05-16T18:29:40.847Z,98325.00
2019-05-16T18:32:19.508Z,98317.00
2019-05-16T18:35:02.106Z,98322.00
2019-05-16T18:41:36.576Z,98319.00
2019-05-16T18:44:11.322Z,98322.00
2019-05-16T18:47:11.571Z,98319.00
2019-05-16T18:50:01.070Z,98314.00
2019-05-16T18:52:39.304Z,98323.00
2019-05-16T18:55:16.960Z,98321.00
2019-05-16T18:57:57.577Z,98321.00
2019-05-16T19:00:32.875Z,98316.00
2019-05-16T19:03:11.765Z,98314.00
2019-05-16T19:06:07.860Z,98331.00
2019-05-16T19:08:48.869Z,98325.00
2019-05-16T19:11:29.158Z,98320.00
2019-05-16T19:14:30.950Z,98315.00
2019-05-16T19:17:17.344Z,98332.00
2019-05-16T19:19:47.062Z,98322.00
2019-05-16T19:22:21.708Z,98313.00
2019-05-16T19:24:54.080Z,98321.00
2019-05-16T19:27:47.500Z,98331.00
2019-05-16T19:30:20.739Z,98323.00
2019-05-16T19:33:03.274Z,98326.00
2019-05-16T19:35:49.326Z,98331.00
2019-05-16T19:38:29.633Z,98323.00
2019-05-16T19:59:36.690Z,98311.00
2019-05-16T20:07:54.393Z,98307.00
2019-05-16T21:44:17.491Z,98237.00
2019-05-16T21:46:56.419Z,98231.00
2019-05-16T21:57:26.968Z,98213.00
